Estación Meteorológica Peña el Pijo (Robertgarden) [ 01/30/23 14:26:07 CET ]

Fecha Hora Presion(HPa) Temp (°C) Humedad % Rocio (°C) Viento ( m/s) Direccion Lluvia 1Hora(mm) Lluvia 24H(mm) LLuvia Total(mm)
2012-Dec-26 01:01:12 1008.100 4.4 80 1.3         178.19
2012-Dec-26 02:01:16 1008.200 4.9 81 1.9         178.19
2012-Dec-26 03:01:17 1009.100 5.0 81 2.0         178.19
2012-Dec-26 04:01:13 1009.600 4.8 81 1.8         178.19
2012-Dec-26 05:01:13 1009.900 4.2 85 1.9         178.19
2012-Dec-26 06:01:15 1010.400 4.4 84 1.9         178.19
2012-Dec-26 07:01:21 1011.300 4.5 84 2.0         178.19
2012-Dec-26 08:01:13 1012.800 4.8 83 2.1         178.19
2012-Dec-26 09:01:17 1013.200 4.8 83 2.1         178.19
2012-Dec-26 10:01:14 1014.300 5.2 82 2.3         178.19
2012-Dec-26 11:01:16 1015.400 8.8 70 3.6         178.19
2012-Dec-26 12:01:16 1015.500 9.8 60 2.4         178.19
2012-Dec-26 13:01:14 1014.800 11.7 51 1.9         178.19
2012-Dec-26 14:01:15 1014.400 13.1 45 1.3         178.19
2012-Dec-26 15:01:12 1014.300 13.4 43 1.0         178.19
2012-Dec-26 16:01:16 1014.900 12.7 37 -1.7         178.19
2012-Dec-26 17:01:17 1015.700 9.6 48 -0.9         178.19
2012-Dec-26 18:01:11 1016.000 7.0 58 -0.7         178.19
2012-Dec-26 19:01:14 1016.900 3.8 66 -2.0         178.19
2012-Dec-26 20:01:11 1017.600 2.1 72 -2.4         178.19
2012-Dec-26 21:01:11 1018.100 1.6 75 -2.4         178.19
2012-Dec-26 22:01:16 1018.300 0.5 78 -2.9         178.19
2012-Dec-26 23:01:13 1018.800 -0.1 78 -3.5         178.19

Temperatura Máxima:13°    Temperatura Mínima:
Presión Máxima:1018.800 Hpa    Presión Mínima:1008.100 Hpa


Volver